sensor_id;sensor_type;location;lat;lon;timestamp;P1;durP1;ratioP1;P2;durP2;ratioP2
20421;SDS011;10370;53.102;18.034;2023-02-15T00:01:06;476.10;;;124.40;;
20421;SDS011;10370;53.102;18.034;2023-02-15T00:06:53;426.50;;;120.77;;
20421;SDS011;10370;53.102;18.034;2023-02-15T00:12:35;445.10;;;125.97;;
20421;SDS011;10370;53.102;18.034;2023-02-15T00:18:25;420.57;;;123.63;;
20421;SDS011;10370;53.102;18.034;2023-02-15T00:23:52;433.97;;;127.00;;
20421;SDS011;10370;53.102;18.034;2023-02-15T00:29:19;398.97;;;120.17;;
20421;SDS011;10370;53.102;18.034;2023-02-15T00:34:44;389.53;;;118.47;;
20421;SDS011;10370;53.102;18.034;2023-02-15T00:40:29;374.10;;;117.73;;
20421;SDS011;10370;53.102;18.034;2023-02-15T00:45:55;379.00;;;115.00;;
20421;SDS011;10370;53.102;18.034;2023-02-15T00:51:26;366.47;;;114.87;;
20421;SDS011;10370;53.102;18.034;2023-02-15T00:56:52;391.93;;;118.90;;
20421;SDS011;10370;53.102;18.034;2023-02-15T01:02:39;374.20;;;118.83;;
20421;SDS011;10370;53.102;18.034;2023-02-15T01:08:04;361.73;;;114.10;;
20421;SDS011;10370;53.102;18.034;2023-02-15T01:13:30;332.97;;;108.47;;
20421;SDS011;10370;53.102;18.034;2023-02-15T01:19:16;302.73;;;99.17;;
20421;SDS011;10370;53.102;18.034;2023-02-15T01:25:03;324.33;;;97.50;;
20421;SDS011;10370;53.102;18.034;2023-02-15T01:30:48;308.80;;;96.37;;
20421;SDS011;10370;53.102;18.034;2023-02-15T01:36:34;298.00;;;94.93;;
20421;SDS011;10370;53.102;18.034;2023-02-15T01:42:05;295.57;;;91.33;;
20421;SDS011;10370;53.102;18.034;2023-02-15T01:47:43;333.50;;;91.40;;
20421;SDS011;10370;53.102;18.034;2023-02-15T01:59:20;338.97;;;90.47;;
20421;SDS011;10370;53.102;18.034;2023-02-15T02:04:47;281.50;;;81.20;;
20421;SDS011;10370;53.102;18.034;2023-02-15T02:10:17;322.10;;;87.93;;
20421;SDS011;10370;53.102;18.034;2023-02-15T02:16:06;391.20;;;99.53;;
20421;SDS011;10370;53.102;18.034;2023-02-15T02:21:50;425.87;;;104.13;;
20421;SDS011;10370;53.102;18.034;2023-02-15T02:50:43;279.00;;;81.87;;
20421;SDS011;10370;53.102;18.034;2023-02-15T02:56:31;260.20;;;79.47;;
20421;SDS011;10370;53.102;18.034;2023-02-15T03:02:10;231.40;;;75.57;;
20421;SDS011;10370;53.102;18.034;2023-02-15T03:07:40;239.83;;;78.87;;
20421;SDS011;10370;53.102;18.034;2023-02-15T03:13:09;254.17;;;84.57;;
20421;SDS011;10370;53.102;18.034;2023-02-15T03:24:30;198.70;;;63.93;;
20421;SDS011;10370;53.102;18.034;2023-02-15T03:29:59;203.63;;;63.33;;
20421;SDS011;10370;53.102;18.034;2023-02-15T03:35:31;209.43;;;67.03;;
20421;SDS011;10370;53.102;18.034;2023-02-15T03:41:01;213.87;;;69.77;;
20421;SDS011;10370;53.102;18.034;2023-02-15T03:46:39;201.07;;;67.20;;
20421;SDS011;10370;53.102;18.034;2023-02-15T03:52:06;186.27;;;64.73;;
20421;SDS011;10370;53.102;18.034;2023-02-15T03:57:34;191.87;;;63.37;;
20421;SDS011;10370;53.102;18.034;2023-02-15T04:03:22;191.17;;;64.20;;
20421;SDS011;10370;53.102;18.034;2023-02-15T04:09:07;211.03;;;72.70;;
20421;SDS011;10370;53.102;18.034;2023-02-15T04:14:51;201.57;;;67.63;;
20421;SDS011;10370;53.102;18.034;2023-02-15T04:20:37;195.53;;;68.50;;
20421;SDS011;10370;53.102;18.034;2023-02-15T04:26:24;200.90;;;71.47;;
20421;SDS011;10370;53.102;18.034;2023-02-15T04:31:51;204.97;;;74.13;;
20421;SDS011;10370;53.102;18.034;2023-02-15T04:37:37;219.13;;;76.13;;
20421;SDS011;10370;53.102;18.034;2023-02-15T04:43:24;222.33;;;81.53;;
20421;SDS011;10370;53.102;18.034;2023-02-15T04:48:50;228.93;;;80.27;;
20421;SDS011;10370;53.102;18.034;2023-02-15T04:54:19;207.80;;;77.57;;
20421;SDS011;10370;53.102;18.034;2023-02-15T04:59:45;219.43;;;80.93;;
20421;SDS011;10370;53.102;18.034;2023-02-15T05:05:10;223.63;;;81.80;;
20421;SDS011;10370;53.102;18.034;2023-02-15T05:10:38;232.87;;;86.73;;
20421;SDS011;10370;53.102;18.034;2023-02-15T05:16:05;260.80;;;96.50;;
20421;SDS011;10370;53.102;18.034;2023-02-15T05:21:31;275.30;;;95.83;;
20421;SDS011;10370;53.102;18.034;2023-02-15T05:26:58;251.20;;;90.67;;
20421;SDS011;10370;53.102;18.034;2023-02-15T05:32:46;221.50;;;82.83;;
20421;SDS011;10370;53.102;18.034;2023-02-15T05:38:12;191.03;;;72.30;;
20421;SDS011;10370;53.102;18.034;2023-02-15T05:43:40;162.33;;;60.67;;
20421;SDS011;10370;53.102;18.034;2023-02-15T05:49:02;160.93;;;58.33;;
20421;SDS011;10370;53.102;18.034;2023-02-15T05:54:25;156.93;;;59.53;;
20421;SDS011;10370;53.102;18.034;2023-02-15T05:59:47;151.27;;;56.77;;
20421;SDS011;10370;53.102;18.034;2023-02-15T06:05:32;154.57;;;56.10;;
20421;SDS011;10370;53.102;18.034;2023-02-15T06:11:17;181.77;;;64.93;;
20421;SDS011;10370;53.102;18.034;2023-02-15T06:17:02;209.03;;;77.17;;
20421;SDS011;10370;53.102;18.034;2023-02-15T06:22:46;187.37;;;67.40;;
20421;SDS011;10370;53.102;18.034;2023-02-15T06:28:12;200.10;;;72.00;;
20421;SDS011;10370;53.102;18.034;2023-02-15T06:33:41;216.23;;;81.97;;
20421;SDS011;10370;53.102;18.034;2023-02-15T06:40:12;229.97;;;84.97;;
20421;SDS011;10370;53.102;18.034;2023-02-15T06:46:33;260.97;;;90.03;;
20421;SDS011;10370;53.102;18.034;2023-02-15T06:52:16;258.83;;;93.00;;
20421;SDS011;10370;53.102;18.034;2023-02-15T06:57:42;233.40;;;87.10;;
20421;SDS011;10370;53.102;18.034;2023-02-15T07:03:39;241.83;;;90.60;;
20421;SDS011;10370;53.102;18.034;2023-02-15T07:14:24;226.10;;;83.10;;
20421;SDS011;10370;53.102;18.034;2023-02-15T07:19:48;191.23;;;69.00;;
20421;SDS011;10370;53.102;18.034;2023-02-15T07:25:09;179.43;;;63.87;;
20421;SDS011;10370;53.102;18.034;2023-02-15T07:30:32;145.50;;;55.47;;
20421;SDS011;10370;53.102;18.034;2023-02-15T07:35:56;158.60;;;57.00;;
20421;SDS011;10370;53.102;18.034;2023-02-15T07:41:19;158.00;;;57.63;;
20421;SDS011;10370;53.102;18.034;2023-02-15T07:46:40;162.60;;;60.63;;
20421;SDS011;10370;53.102;18.034;2023-02-15T07:52:09;141.23;;;53.23;;
20421;SDS011;10370;53.102;18.034;2023-02-15T07:57:34;111.77;;;43.97;;
20421;SDS011;10370;53.102;18.034;2023-02-15T08:02:57;112.83;;;45.03;;
20421;SDS011;10370;53.102;18.034;2023-02-15T08:08:37;111.20;;;44.67;;
20421;SDS011;10370;53.102;18.034;2023-02-15T08:14:05;114.90;;;44.00;;
20421;SDS011;10370;53.102;18.034;2023-02-15T08:19:27;102.37;;;42.07;;
20421;SDS011;10370;53.102;18.034;2023-02-15T08:25:02;91.40;;;38.60;;
20421;SDS011;10370;53.102;18.034;2023-02-15T08:30:39;91.43;;;38.27;;
20421;SDS011;10370;53.102;18.034;2023-02-15T08:36:14;89.10;;;37.33;;
20421;SDS011;10370;53.102;18.034;2023-02-15T08:42:10;93.20;;;38.03;;
20421;SDS011;10370;53.102;18.034;2023-02-15T08:47:54;90.80;;;36.00;;
20421;SDS011;10370;53.102;18.034;2023-02-15T08:53:34;89.17;;;36.27;;
20421;SDS011;10370;53.102;18.034;2023-02-15T08:59:19;71.87;;;31.67;;
20421;SDS011;10370;53.102;18.034;2023-02-15T09:17:15;62.97;;;26.90;;
20421;SDS011;10370;53.102;18.034;2023-02-15T09:22:36;56.10;;;25.77;;
20421;SDS011;10370;53.102;18.034;2023-02-15T09:27:59;53.50;;;21.93;;
20421;SDS011;10370;53.102;18.034;2023-02-15T09:33:20;67.80;;;26.67;;
20421;SDS011;10370;53.102;18.034;2023-02-15T09:38:52;46.17;;;21.07;;
20421;SDS011;10370;53.102;18.034;2023-02-15T09:44:33;49.60;;;21.27;;
20421;SDS011;10370;53.102;18.034;2023-02-15T10:01:47;51.13;;;24.27;;
20421;SDS011;10370;53.102;18.034;2023-02-15T10:07:30;56.97;;;25.70;;
20421;SDS011;10370;53.102;18.034;2023-02-15T10:18:42;66.43;;;29.37;;
20421;SDS011;10370;53.102;18.034;2023-02-15T10:35:34;78.20;;;32.53;;
20421;SDS011;10370;53.102;18.034;2023-02-15T11:04:05;81.20;;;34.43;;
20421;SDS011;10370;53.102;18.034;2023-02-15T11:09:40;84.27;;;36.10;;
20421;SDS011;10370;53.102;18.034;2023-02-15T11:21:01;82.70;;;34.87;;
20421;SDS011;10370;53.102;18.034;2023-02-15T11:26:34;86.03;;;34.33;;
20421;SDS011;10370;53.102;18.034;2023-02-15T11:32:12;87.37;;;35.43;;
20421;SDS011;10370;53.102;18.034;2023-02-15T11:38:06;82.50;;;33.43;;
20421;SDS011;10370;53.102;18.034;2023-02-15T11:43:39;81.93;;;34.17;;
20421;SDS011;10370;53.102;18.034;2023-02-15T11:55:22;86.97;;;36.40;;
20421;SDS011;10370;53.102;18.034;2023-02-15T12:00:49;87.60;;;36.40;;
20421;SDS011;10370;53.102;18.034;2023-02-15T12:06:37;95.43;;;36.63;;
20421;SDS011;10370;53.102;18.034;2023-02-15T12:12:30;92.60;;;37.30;;
20421;SDS011;10370;53.102;18.034;2023-02-15T12:18:41;91.53;;;38.27;;
20421;SDS011;10370;53.102;18.034;2023-02-15T12:24:34;92.50;;;37.40;;
20421;SDS011;10370;53.102;18.034;2023-02-15T12:36:18;91.03;;;37.07;;
20421;SDS011;10370;53.102;18.034;2023-02-15T12:42:15;89.27;;;36.23;;
20421;SDS011;10370;53.102;18.034;2023-02-15T12:54:08;87.10;;;34.93;;
20421;SDS011;10370;53.102;18.034;2023-02-15T13:00:00;99.17;;;38.17;;
20421;SDS011;10370;53.102;18.034;2023-02-15T13:05:38;96.17;;;38.17;;
20421;SDS011;10370;53.102;18.034;2023-02-15T13:11:08;111.47;;;40.07;;
20421;SDS011;10370;53.102;18.034;2023-02-15T13:16:58;112.83;;;42.87;;
20421;SDS011;10370;53.102;18.034;2023-02-15T13:22:47;103.77;;;41.03;;
20421;SDS011;10370;53.102;18.034;2023-02-15T13:28:47;109.97;;;40.30;;
20421;SDS011;10370;53.102;18.034;2023-02-15T13:34:28;98.27;;;38.77;;
20421;SDS011;10370;53.102;18.034;2023-02-15T13:57:53;114.13;;;43.03;;
20421;SDS011;10370;53.102;18.034;2023-02-15T14:26:21;109.40;;;40.83;;
20421;SDS011;10370;53.102;18.034;2023-02-15T14:31:54;107.43;;;40.07;;
20421;SDS011;10370;53.102;18.034;2023-02-15T14:37:28;112.80;;;42.10;;
20421;SDS011;10370;53.102;18.034;2023-02-15T14:43:19;98.37;;;38.87;;
20421;SDS011;10370;53.102;18.034;2023-02-15T14:49:19;99.03;;;37.13;;
20421;SDS011;10370;53.102;18.034;2023-02-15T15:00:27;97.37;;;36.53;;
20421;SDS011;10370;53.102;18.034;2023-02-15T15:05:52;100.07;;;39.17;;
20421;SDS011;10370;53.102;18.034;2023-02-15T15:17:03;101.77;;;36.93;;
20421;SDS011;10370;53.102;18.034;2023-02-15T15:22:29;99.30;;;35.93;;
20421;SDS011;10370;53.102;18.034;2023-02-15T15:27:53;91.33;;;34.37;;
20421;SDS011;10370;53.102;18.034;2023-02-15T15:50:30;95.70;;;35.53;;
20421;SDS011;10370;53.102;18.034;2023-02-15T15:56:02;90.77;;;35.83;;
20421;SDS011;10370;53.102;18.034;2023-02-15T16:01:27;95.87;;;37.97;;
20421;SDS011;10370;53.102;18.034;2023-02-15T16:06:53;96.43;;;36.57;;
20421;SDS011;10370;53.102;18.034;2023-02-15T16:12:20;105.73;;;37.60;;
20421;SDS011;10370;53.102;18.034;2023-02-15T16:17:48;108.83;;;42.03;;
20421;SDS011;10370;53.102;18.034;2023-02-15T16:28:58;116.47;;;42.20;;
20421;SDS011;10370;53.102;18.034;2023-02-15T16:34:19;117.67;;;42.60;;
20421;SDS011;10370;53.102;18.034;2023-02-15T16:39:45;127.03;;;43.50;;
20421;SDS011;10370;53.102;18.034;2023-02-15T16:45:14;109.97;;;40.97;;
20421;SDS011;10370;53.102;18.034;2023-02-15T16:50:37;119.63;;;42.93;;
20421;SDS011;10370;53.102;18.034;2023-02-15T16:56:00;114.23;;;41.43;;
20421;SDS011;10370;53.102;18.034;2023-02-15T17:01:28;116.47;;;39.97;;
20421;SDS011;10370;53.102;18.034;2023-02-15T17:12:48;118.63;;;42.97;;
20421;SDS011;10370;53.102;18.034;2023-02-15T17:18:21;125.87;;;44.03;;
20421;SDS011;10370;53.102;18.034;2023-02-15T17:23:44;129.57;;;46.03;;
20421;SDS011;10370;53.102;18.034;2023-02-15T17:40:49;122.47;;;43.77;;
20421;SDS011;10370;53.102;18.034;2023-02-15T17:46:15;134.07;;;48.17;;
20421;SDS011;10370;53.102;18.034;2023-02-15T17:51:43;138.60;;;50.07;;
20421;SDS011;10370;53.102;18.034;2023-02-15T17:57:12;154.87;;;57.27;;
20421;SDS011;10370;53.102;18.034;2023-02-15T18:02:37;150.33;;;53.67;;
20421;SDS011;10370;53.102;18.034;2023-02-15T18:08:23;141.60;;;49.70;;
20421;SDS011;10370;53.102;18.034;2023-02-15T18:14:08;196.03;;;71.83;;
20421;SDS011;10370;53.102;18.034;2023-02-15T18:19:33;131.20;;;45.23;;
20421;SDS011;10370;53.102;18.034;2023-02-15T18:24:59;125.97;;;44.10;;
20421;SDS011;10370;53.102;18.034;2023-02-15T18:30:24;138.80;;;46.50;;
20421;SDS011;10370;53.102;18.034;2023-02-15T18:35:50;117.37;;;42.20;;
20421;SDS011;10370;53.102;18.034;2023-02-15T18:41:16;137.30;;;49.37;;
20421;SDS011;10370;53.102;18.034;2023-02-15T18:46:40;134.70;;;47.77;;
20421;SDS011;10370;53.102;18.034;2023-02-15T18:52:08;138.03;;;46.73;;
20421;SDS011;10370;53.102;18.034;2023-02-15T18:57:36;137.77;;;45.27;;
20421;SDS011;10370;53.102;18.034;2023-02-15T19:03:06;151.97;;;49.93;;
20421;SDS011;10370;53.102;18.034;2023-02-15T19:08:33;158.83;;;50.20;;
20421;SDS011;10370;53.102;18.034;2023-02-15T19:13:56;136.67;;;43.93;;
20421;SDS011;10370;53.102;18.034;2023-02-15T19:19:17;145.43;;;47.37;;
20421;SDS011;10370;53.102;18.034;2023-02-15T19:24:39;144.73;;;45.23;;
20421;SDS011;10370;53.102;18.034;2023-02-15T19:30:06;141.30;;;45.70;;
20421;SDS011;10370;53.102;18.034;2023-02-15T19:35:34;151.73;;;46.73;;
20421;SDS011;10370;53.102;18.034;2023-02-15T19:41:03;155.60;;;47.53;;
20421;SDS011;10370;53.102;18.034;2023-02-15T19:46:29;150.30;;;45.27;;
20421;SDS011;10370;53.102;18.034;2023-02-15T19:51:53;157.97;;;48.43;;
20421;SDS011;10370;53.102;18.034;2023-02-15T19:57:18;153.60;;;48.73;;
20421;SDS011;10370;53.102;18.034;2023-02-15T20:02:43;161.93;;;48.37;;
20421;SDS011;10370;53.102;18.034;2023-02-15T20:08:09;158.43;;;50.17;;
20421;SDS011;10370;53.102;18.034;2023-02-15T20:13:41;177.43;;;54.13;;
20421;SDS011;10370;53.102;18.034;2023-02-15T20:19:06;154.97;;;48.80;;
20421;SDS011;10370;53.102;18.034;2023-02-15T20:24:32;168.80;;;53.20;;
20421;SDS011;10370;53.102;18.034;2023-02-15T20:29:57;160.73;;;51.43;;
20421;SDS011;10370;53.102;18.034;2023-02-15T20:35:21;165.97;;;51.63;;
20421;SDS011;10370;53.102;18.034;2023-02-15T20:40:46;182.37;;;54.77;;
20421;SDS011;10370;53.102;18.034;2023-02-15T20:46:30;165.83;;;49.83;;
20421;SDS011;10370;53.102;18.034;2023-02-15T20:52:13;174.60;;;54.10;;
20421;SDS011;10370;53.102;18.034;2023-02-15T20:57:40;180.37;;;53.23;;
20421;SDS011;10370;53.102;18.034;2023-02-15T21:03:06;190.17;;;57.83;;
20421;SDS011;10370;53.102;18.034;2023-02-15T21:08:33;180.77;;;53.63;;
20421;SDS011;10370;53.102;18.034;2023-02-15T21:13:58;168.43;;;53.00;;
20421;SDS011;10370;53.102;18.034;2023-02-15T21:19:25;175.03;;;53.37;;
20421;SDS011;10370;53.102;18.034;2023-02-15T21:24:50;151.33;;;45.17;;
20421;SDS011;10370;53.102;18.034;2023-02-15T21:30:17;162.93;;;48.87;;
20421;SDS011;10370;53.102;18.034;2023-02-15T21:35:43;162.63;;;46.27;;
20421;SDS011;10370;53.102;18.034;2023-02-15T21:41:20;149.43;;;45.83;;
20421;SDS011;10370;53.102;18.034;2023-02-15T21:47:07;179.97;;;51.20;;
20421;SDS011;10370;53.102;18.034;2023-02-15T21:53:02;177.20;;;50.80;;
20421;SDS011;10370;53.102;18.034;2023-02-15T21:58:30;183.73;;;55.70;;
20421;SDS011;10370;53.102;18.034;2023-02-15T22:03:56;177.23;;;52.17;;
20421;SDS011;10370;53.102;18.034;2023-02-15T22:09:21;191.73;;;55.67;;
20421;SDS011;10370;53.102;18.034;2023-02-15T22:14:54;181.13;;;52.57;;
20421;SDS011;10370;53.102;18.034;2023-02-15T22:20:21;179.47;;;53.17;;
20421;SDS011;10370;53.102;18.034;2023-02-15T22:25:49;175.50;;;53.03;;
20421;SDS011;10370;53.102;18.034;2023-02-15T22:31:21;191.53;;;53.03;;
20421;SDS011;10370;53.102;18.034;2023-02-15T22:36:45;188.77;;;54.10;;
20421;SDS011;10370;53.102;18.034;2023-02-15T22:42:20;189.67;;;55.77;;
20421;SDS011;10370;53.102;18.034;2023-02-15T22:47:46;178.00;;;51.43;;
20421;SDS011;10370;53.102;18.034;2023-02-15T22:53:14;154.37;;;48.30;;
20421;SDS011;10370;53.102;18.034;2023-02-15T22:58:35;166.33;;;48.97;;
20421;SDS011;10370;53.102;18.034;2023-02-15T23:03:56;171.97;;;51.97;;
20421;SDS011;10370;53.102;18.034;2023-02-15T23:09:22;166.27;;;48.73;;
20421;SDS011;10370;53.102;18.034;2023-02-15T23:14:48;170.77;;;49.87;;
20421;SDS011;10370;53.102;18.034;2023-02-15T23:20:13;169.57;;;49.63;;
20421;SDS011;10370;53.102;18.034;2023-02-15T23:25:38;173.73;;;50.03;;
20421;SDS011;10370;53.102;18.034;2023-02-15T23:31:17;166.40;;;48.67;;
20421;SDS011;10370;53.102;18.034;2023-02-15T23:36:45;160.43;;;49.50;;
20421;SDS011;10370;53.102;18.034;2023-02-15T23:42:18;178.33;;;52.77;;
20421;SDS011;10370;53.102;18.034;2023-02-15T23:47:52;196.60;;;53.80;;
20421;SDS011;10370;53.102;18.034;2023-02-15T23:53:36;172.60;;;51.97;;
20421;SDS011;10370;53.102;18.034;2023-02-15T23:59:01;172.63;;;50.20;;
